sensor_id;sensor_type;location;lat;lon;timestamp;pressure;altitude;pressure_sealevel;temperature;humidity
19286;BME280;9776;50.798;6.430;2022-12-20T00:02:24;100173.56;;;12.79;61.65
19286;BME280;9776;50.798;6.430;2022-12-20T00:04:51;100159.53;;;12.78;62.06
19286;BME280;9776;50.798;6.430;2022-12-20T00:07:17;100145.59;;;12.76;61.77
19286;BME280;9776;50.798;6.430;2022-12-20T00:09:46;100141.31;;;12.75;61.83
19286;BME280;9776;50.798;6.430;2022-12-20T00:12:12;100161.47;;;12.76;61.98
19286;BME280;9776;50.798;6.430;2022-12-20T00:14:39;100164.31;;;12.75;62.20
19286;BME280;9776;50.798;6.430;2022-12-20T00:17:06;100172.91;;;12.69;62.39
19286;BME280;9776;50.798;6.430;2022-12-20T00:19:33;100173.91;;;12.68;62.37
19286;BME280;9776;50.798;6.430;2022-12-20T00:21:59;100183.84;;;12.66;62.08
19286;BME280;9776;50.798;6.430;2022-12-20T00:24:26;100190.97;;;12.65;62.24
19286;BME280;9776;50.798;6.430;2022-12-20T00:26:55;100177.56;;;12.67;62.23
19286;BME280;9776;50.798;6.430;2022-12-20T00:29:22;100175.56;;;12.69;61.94
19286;BME280;9776;50.798;6.430;2022-12-20T00:31:50;100171.25;;;12.68;62.16
19286;BME280;9776;50.798;6.430;2022-12-20T00:34:17;100178.38;;;12.67;62.05
19286;BME280;9776;50.798;6.430;2022-12-20T00:36:45;100172.91;;;12.69;62.13
19286;BME280;9776;50.798;6.430;2022-12-20T00:39:12;100184.69;;;12.66;61.93
19286;BME280;9776;50.798;6.430;2022-12-20T00:41:38;100178.56;;;12.66;62.15
19286;BME280;9776;50.798;6.430;2022-12-20T00:44:07;100185.50;;;12.67;61.98
19286;BME280;9776;50.798;6.430;2022-12-20T00:46:33;100170.94;;;12.71;61.96
19286;BME280;9776;50.798;6.430;2022-12-20T00:49:00;100171.09;;;12.69;61.98
19286;BME280;9776;50.798;6.430;2022-12-20T00:51:29;100164.97;;;12.69;61.99
19286;BME280;9776;50.798;6.430;2022-12-20T00:53:56;100181.53;;;12.71;61.73
19286;BME280;9776;50.798;6.430;2022-12-20T00:56:23;100173.75;;;12.69;61.98
19286;BME280;9776;50.798;6.430;2022-12-20T00:58:50;100169.63;;;12.75;61.58
19286;BME280;9776;50.798;6.430;2022-12-20T01:01:21;100168.44;;;12.77;61.41
19286;BME280;9776;50.798;6.430;2022-12-20T01:03:48;100159.84;;;12.75;61.79
19286;BME280;9776;50.798;6.430;2022-12-20T01:06:16;100167.94;;;12.74;61.68
19286;BME280;9776;50.798;6.430;2022-12-20T01:08:43;100153.56;;;12.68;62.10
19286;BME280;9776;50.798;6.430;2022-12-20T01:11:12;100167.97;;;12.66;61.95
19286;BME280;9776;50.798;6.430;2022-12-20T01:13:40;100168.44;;;12.61;62.01
19286;BME280;9776;50.798;6.430;2022-12-20T01:16:10;100147.44;;;12.60;62.40
19286;BME280;9776;50.798;6.430;2022-12-20T01:18:38;100157.84;;;12.61;62.09
19286;BME280;9776;50.798;6.430;2022-12-20T01:21:07;100143.97;;;12.59;62.47
19286;BME280;9776;50.798;6.430;2022-12-20T01:23:34;100147.78;;;12.57;62.42
19286;BME280;9776;50.798;6.430;2022-12-20T01:26:03;100151.06;;;12.59;62.48
19286;BME280;9776;50.798;6.430;2022-12-20T01:28:31;100150.41;;;12.57;62.24
19286;BME280;9776;50.798;6.430;2022-12-20T01:30:57;100146.94;;;12.56;62.47
19286;BME280;9776;50.798;6.430;2022-12-20T01:33:24;100152.41;;;12.55;62.55
19286;BME280;9776;50.798;6.430;2022-12-20T01:35:57;100161.34;;;12.53;62.40
19286;BME280;9776;50.798;6.430;2022-12-20T01:38:24;100151.09;;;12.50;62.55
19286;BME280;9776;50.798;6.430;2022-12-20T01:40:51;100152.09;;;12.49;62.70
19286;BME280;9776;50.798;6.430;2022-12-20T01:43:19;100147.78;;;12.48;62.76
19286;BME280;9776;50.798;6.430;2022-12-20T01:45:46;100151.25;;;12.49;62.60
19286;BME280;9776;50.798;6.430;2022-12-20T01:48:16;100144.31;;;12.48;62.89
19286;BME280;9776;50.798;6.430;2022-12-20T01:50:46;100141.66;;;12.48;62.88
19286;BME280;9776;50.798;6.430;2022-12-20T01:53:18;100137.19;;;12.48;62.51
19286;BME280;9776;50.798;6.430;2022-12-20T01:55:46;100131.06;;;12.48;62.84
19286;BME280;9776;50.798;6.430;2022-12-20T01:58:15;100125.94;;;12.46;62.82
19286;BME280;9776;50.798;6.430;2022-12-20T02:00:43;100114.69;;;12.44;62.88
19286;BME280;9776;50.798;6.430;2022-12-20T02:03:11;100105.44;;;12.48;62.73
19286;BME280;9776;50.798;6.430;2022-12-20T02:05:42;100099.31;;;12.48;62.94
19286;BME280;9776;50.798;6.430;2022-12-20T02:08:10;100103.09;;;12.45;62.99
19286;BME280;9776;50.798;6.430;2022-12-20T02:10:50;100096.34;;;12.43;62.88
19286;BME280;9776;50.798;6.430;2022-12-20T02:13:30;100098.47;;;12.47;62.94
19286;BME280;9776;50.798;6.430;2022-12-20T02:16:03;100097.81;;;12.45;62.77
19286;BME280;9776;50.798;6.430;2022-12-20T02:18:36;100104.44;;;12.41;63.14
19286;BME280;9776;50.798;6.430;2022-12-20T02:21:13;100094.84;;;12.40;62.97
19286;BME280;9776;50.798;6.430;2022-12-20T02:24:12;100093.69;;;12.35;63.05
19286;BME280;9776;50.798;6.430;2022-12-20T02:27:36;100109.06;;;12.31;63.35
19286;BME280;9776;50.798;6.430;2022-12-20T02:30:11;100105.25;;;12.34;63.48
19286;BME280;9776;50.798;6.430;2022-12-20T02:32:43;100104.63;;;12.32;63.09
19286;BME280;9776;50.798;6.430;2022-12-20T02:35:19;100101.97;;;12.32;63.21
19286;BME280;9776;50.798;6.430;2022-12-20T02:37:51;100105.25;;;12.34;63.38
19286;BME280;9776;50.798;6.430;2022-12-20T02:40:22;100107.59;;;12.37;63.46
19286;BME280;9776;50.798;6.430;2022-12-20T02:42:52;100092.19;;;12.40;63.14
19286;BME280;9776;50.798;6.430;2022-12-20T02:45:24;100098.16;;;12.42;63.29
19286;BME280;9776;50.798;6.430;2022-12-20T02:47:54;100092.66;;;12.44;62.96
19286;BME280;9776;50.798;6.430;2022-12-20T02:50:26;100088.88;;;12.46;62.98
19286;BME280;9776;50.798;6.430;2022-12-20T02:52:54;100079.28;;;12.45;63.15
19286;BME280;9776;50.798;6.430;2022-12-20T02:55:30;100074.81;;;12.46;63.09
19286;BME280;9776;50.798;6.430;2022-12-20T02:58:06;100075.81;;;12.45;63.31
19286;BME280;9776;50.798;6.430;2022-12-20T03:00:41;100073.00;;;12.46;63.22
19286;BME280;9776;50.798;6.430;2022-12-20T03:03:11;100058.59;;;12.49;63.11
19286;BME280;9776;50.798;6.430;2022-12-20T03:05:52;100050.81;;;12.47;63.00
19286;BME280;9776;50.798;6.430;2022-12-20T03:08:19;100067.38;;;12.49;63.12
19286;BME280;9776;50.798;6.430;2022-12-20T03:10:48;100065.06;;;12.46;63.18
19286;BME280;9776;50.798;6.430;2022-12-20T03:13:15;100052.81;;;12.45;63.32
19286;BME280;9776;50.798;6.430;2022-12-20T03:15:43;100058.44;;;12.50;63.06
19286;BME280;9776;50.798;6.430;2022-12-20T03:18:10;100065.53;;;12.50;63.17
19286;BME280;9776;50.798;6.430;2022-12-20T03:20:37;100060.56;;;12.47;63.23
19286;BME280;9776;50.798;6.430;2022-12-20T03:23:05;100058.75;;;12.47;63.53
19286;BME280;9776;50.798;6.430;2022-12-20T03:25:32;100058.94;;;12.46;63.41
19286;BME280;9776;50.798;6.430;2022-12-20T03:27:58;100073.66;;;12.48;63.58
19286;BME280;9776;50.798;6.430;2022-12-20T03:30:25;100077.28;;;12.47;63.38
19286;BME280;9776;50.798;6.430;2022-12-20T03:32:53;100078.31;;;12.46;63.31
19286;BME280;9776;50.798;6.430;2022-12-20T03:35:20;100077.63;;;12.44;63.50
19286;BME280;9776;50.798;6.430;2022-12-20T03:37:47;100082.25;;;12.42;63.92
19286;BME280;9776;50.798;6.430;2022-12-20T03:40:13;100081.63;;;12.40;64.15
19286;BME280;9776;50.798;6.430;2022-12-20T03:42:41;100076.97;;;12.42;64.10
19286;BME280;9776;50.798;6.430;2022-12-20T03:45:09;100083.59;;;12.38;64.14
19286;BME280;9776;50.798;6.430;2022-12-20T03:47:35;100085.75;;;12.43;64.21
19286;BME280;9776;50.798;6.430;2022-12-20T03:50:05;100088.88;;;12.46;63.72
19286;BME280;9776;50.798;6.430;2022-12-20T03:52:32;100082.59;;;12.47;64.09
19286;BME280;9776;50.798;6.430;2022-12-20T03:54:59;100084.25;;;12.48;63.70
19286;BME280;9776;50.798;6.430;2022-12-20T03:57:26;100087.22;;;12.45;64.19
19286;BME280;9776;50.798;6.430;2022-12-20T03:59:53;100088.53;;;12.41;64.40
19286;BME280;9776;50.798;6.430;2022-12-20T04:02:20;100085.25;;;12.39;64.53
19286;BME280;9776;50.798;6.430;2022-12-20T04:04:47;100074.66;;;12.39;64.64
19286;BME280;9776;50.798;6.430;2022-12-20T04:07:15;100075.50;;;12.40;64.68
19286;BME280;9776;50.798;6.430;2022-12-20T04:09:42;100075.81;;;12.37;64.89
19286;BME280;9776;50.798;6.430;2022-12-20T04:12:09;100084.59;;;12.37;64.88
19286;BME280;9776;50.798;6.430;2022-12-20T04:14:36;100071.50;;;12.36;64.94
19286;BME280;9776;50.798;6.430;2022-12-20T04:17:03;100072.53;;;12.35;65.18
19286;BME280;9776;50.798;6.430;2022-12-20T04:19:30;100069.88;;;12.35;64.87
19286;BME280;9776;50.798;6.430;2022-12-20T04:21:56;100068.38;;;12.32;65.14
19286;BME280;9776;50.798;6.430;2022-12-20T04:24:26;100063.91;;;12.33;64.83
19286;BME280;9776;50.798;6.430;2022-12-20T04:26:53;100051.84;;;12.30;65.00
19286;BME280;9776;50.798;6.430;2022-12-20T04:29:19;100058.16;;;12.29;64.92
19286;BME280;9776;50.798;6.430;2022-12-20T04:31:46;100059.63;;;12.32;64.64
19286;BME280;9776;50.798;6.430;2022-12-20T04:34:13;100048.84;;;12.33;64.56
19286;BME280;9776;50.798;6.430;2022-12-20T04:36:40;100054.16;;;12.33;64.76
19286;BME280;9776;50.798;6.430;2022-12-20T04:39:06;100054.00;;;12.35;64.74
19286;BME280;9776;50.798;6.430;2022-12-20T04:41:35;100043.22;;;12.36;64.24
19286;BME280;9776;50.798;6.430;2022-12-20T04:44:01;100044.22;;;12.35;64.53
19286;BME280;9776;50.798;6.430;2022-12-20T04:46:28;100051.34;;;12.35;64.38
19286;BME280;9776;50.798;6.430;2022-12-20T04:48:55;100052.50;;;12.32;64.30
19286;BME280;9776;50.798;6.430;2022-12-20T04:51:22;100056.47;;;12.28;64.34
19286;BME280;9776;50.798;6.430;2022-12-20T04:53:49;100060.09;;;12.27;64.45
19286;BME280;9776;50.798;6.430;2022-12-20T04:56:16;100047.88;;;12.26;64.40
19286;BME280;9776;50.798;6.430;2022-12-20T04:58:45;100047.06;;;12.26;64.32
19286;BME280;9776;50.798;6.430;2022-12-20T05:01:12;100053.50;;;12.23;64.64
19286;BME280;9776;50.798;6.430;2022-12-20T05:03:39;100053.34;;;12.25;64.61
19286;BME280;9776;50.798;6.430;2022-12-20T05:06:07;100047.38;;;12.23;64.49
19286;BME280;9776;50.798;6.430;2022-12-20T05:08:35;100029.19;;;12.20;64.65
19286;BME280;9776;50.798;6.430;2022-12-20T05:11:02;100038.31;;;12.17;64.62
19286;BME280;9776;50.798;6.430;2022-12-20T05:13:29;100032.66;;;12.12;64.70
19286;BME280;9776;50.798;6.430;2022-12-20T05:15:57;100027.03;;;12.07;64.68
19286;BME280;9776;50.798;6.430;2022-12-20T05:18:25;100029.03;;;12.05;64.99
19286;BME280;9776;50.798;6.430;2022-12-20T05:20:54;100031.50;;;12.07;64.84
19286;BME280;9776;50.798;6.430;2022-12-20T05:23:36;100035.31;;;12.04;64.91
19286;BME280;9776;50.798;6.430;2022-12-20T05:26:20;100027.38;;;12.04;64.71
19286;BME280;9776;50.798;6.430;2022-12-20T05:28:49;100020.28;;;12.05;64.64
19286;BME280;9776;50.798;6.430;2022-12-20T05:31:17;100017.63;;;12.05;64.72
19286;BME280;9776;50.798;6.430;2022-12-20T05:33:44;100022.91;;;12.05;64.50
19286;BME280;9776;50.798;6.430;2022-12-20T05:36:11;100019.44;;;12.04;64.64
19286;BME280;9776;50.798;6.430;2022-12-20T05:38:38;100008.03;;;12.04;64.79
19286;BME280;9776;50.798;6.430;2022-12-20T05:41:07;99998.97;;;12.06;64.57
19286;BME280;9776;50.798;6.430;2022-12-20T05:43:36;100006.91;;;12.06;64.67
19286;BME280;9776;50.798;6.430;2022-12-20T05:46:03;100011.19;;;12.07;64.53
19286;BME280;9776;50.798;6.430;2022-12-20T05:48:32;99999.63;;;12.08;64.41
19286;BME280;9776;50.798;6.430;2022-12-20T05:51:00;100002.06;;;12.10;64.57
19286;BME280;9776;50.798;6.430;2022-12-20T05:53:27;100004.25;;;12.06;64.37
19286;BME280;9776;50.798;6.430;2022-12-20T05:55:54;99996.13;;;12.08;64.65
19286;BME280;9776;50.798;6.430;2022-12-20T05:58:21;99994.97;;;12.10;64.41
19286;BME280;9776;50.798;6.430;2022-12-20T06:00:48;99989.53;;;12.12;64.21
19286;BME280;9776;50.798;6.430;2022-12-20T06:03:15;99998.28;;;12.12;64.17
19286;BME280;9776;50.798;6.430;2022-12-20T06:05:43;100005.06;;;12.15;64.37
19286;BME280;9776;50.798;6.430;2022-12-20T06:08:11;100001.25;;;12.17;64.24
19286;BME280;9776;50.798;6.430;2022-12-20T06:10:39;100004.56;;;12.19;64.28
19286;BME280;9776;50.798;6.430;2022-12-20T06:13:06;100012.50;;;12.19;64.14
19286;BME280;9776;50.798;6.430;2022-12-20T06:15:34;100033.66;;;12.19;64.17
19286;BME280;9776;50.798;6.430;2022-12-20T06:18:01;100009.84;;;12.19;64.04
19286;BME280;9776;50.798;6.430;2022-12-20T06:20:28;100012.69;;;12.18;64.05
19286;BME280;9776;50.798;6.430;2022-12-20T06:22:58;99997.59;;;12.18;63.94
19286;BME280;9776;50.798;6.430;2022-12-20T06:25:24;99998.94;;;12.22;63.89
19286;BME280;9776;50.798;6.430;2022-12-20T06:27:51;99995.78;;;12.27;63.92
19286;BME280;9776;50.798;6.430;2022-12-20T06:30:18;99991.81;;;12.31;63.87
19286;BME280;9776;50.798;6.430;2022-12-20T06:32:45;99990.00;;;12.31;63.38
19286;BME280;9776;50.798;6.430;2022-12-20T06:35:12;99984.69;;;12.31;63.60
19286;BME280;9776;50.798;6.430;2022-12-20T06:37:40;99981.22;;;12.31;63.50
19286;BME280;9776;50.798;6.430;2022-12-20T06:40:10;99968.28;;;12.36;63.46
19286;BME280;9776;50.798;6.430;2022-12-20T06:42:38;99973.59;;;12.36;63.53
19286;BME280;9776;50.798;6.430;2022-12-20T06:45:05;99976.09;;;12.37;63.22
19286;BME280;9776;50.798;6.430;2022-12-20T06:47:32;99974.28;;;12.38;63.26
19286;BME280;9776;50.798;6.430;2022-12-20T06:49:59;99974.91;;;12.40;63.34
19286;BME280;9776;50.798;6.430;2022-12-20T06:52:26;99968.28;;;12.36;63.35
19286;BME280;9776;50.798;6.430;2022-12-20T06:54:52;99956.88;;;12.35;63.51
19286;BME280;9776;50.798;6.430;2022-12-20T06:57:21;99961.38;;;12.35;63.50
19286;BME280;9776;50.798;6.430;2022-12-20T06:59:47;99957.22;;;12.32;63.84
19286;BME280;9776;50.798;6.430;2022-12-20T07:02:14;99954.75;;;12.31;63.70
19286;BME280;9776;50.798;6.430;2022-12-20T07:04:41;99938.69;;;12.32;63.65
19286;BME280;9776;50.798;6.430;2022-12-20T07:07:08;99931.44;;;12.34;63.91
19286;BME280;9776;50.798;6.430;2022-12-20T07:09:34;99929.44;;;12.36;63.46
19286;BME280;9776;50.798;6.430;2022-12-20T07:12:02;99925.63;;;12.39;63.57
19286;BME280;9776;50.798;6.430;2022-12-20T07:14:31;99925.13;;;12.43;63.34
19286;BME280;9776;50.798;6.430;2022-12-20T07:16:57;99929.41;;;12.44;63.20
19286;BME280;9776;50.798;6.430;2022-12-20T07:19:24;99934.53;;;12.46;63.36
19286;BME280;9776;50.798;6.430;2022-12-20T07:21:51;99939.97;;;12.44;63.15
19286;BME280;9776;50.798;6.430;2022-12-20T07:24:17;99936.69;;;12.42;63.29
19286;BME280;9776;50.798;6.430;2022-12-20T07:26:44;99946.09;;;12.45;63.30
19286;BME280;9776;50.798;6.430;2022-12-20T07:29:11;99940.16;;;12.43;63.15
19286;BME280;9776;50.798;6.430;2022-12-20T07:31:39;99947.28;;;12.42;63.02
19286;BME280;9776;50.798;6.430;2022-12-20T07:34:06;99938.69;;;12.40;63.21
19286;BME280;9776;50.798;6.430;2022-12-20T07:36:33;99943.66;;;12.43;63.18
19286;BME280;9776;50.798;6.430;2022-12-20T07:39:00;99947.91;;;12.44;63.34
19286;BME280;9776;50.798;6.430;2022-12-20T07:41:26;99935.38;;;12.46;63.13
19286;BME280;9776;50.798;6.430;2022-12-20T07:43:53;99939.81;;;12.46;63.20
19286;BME280;9776;50.798;6.430;2022-12-20T07:46:22;99941.66;;;12.45;63.03
19286;BME280;9776;50.798;6.430;2022-12-20T07:48:51;99948.41;;;12.48;62.97
19286;BME280;9776;50.798;6.430;2022-12-20T07:51:20;99932.38;;;12.49;63.11
19286;BME280;9776;50.798;6.430;2022-12-20T07:53:51;99935.66;;;12.51;62.74
19286;BME280;9776;50.798;6.430;2022-12-20T07:56:20;99926.06;;;12.50;63.18
19286;BME280;9776;50.798;6.430;2022-12-20T07:58:47;99914.50;;;12.51;62.97
19286;BME280;9776;50.798;6.430;2022-12-20T08:01:16;99921.41;;;12.52;62.93
19286;BME280;9776;50.798;6.430;2022-12-20T08:03:46;99920.44;;;12.53;62.95
19286;BME280;9776;50.798;6.430;2022-12-20T08:06:16;99917.63;;;12.55;62.61
19286;BME280;9776;50.798;6.430;2022-12-20T08:08:46;99926.03;;;12.59;62.96
19286;BME280;9776;50.798;6.430;2022-12-20T08:11:14;99927.53;;;12.53;62.74
19286;BME280;9776;50.798;6.430;2022-12-20T08:13:42;99927.53;;;12.53;63.10
19286;BME280;9776;50.798;6.430;2022-12-20T08:16:09;99940.78;;;12.53;62.70
19286;BME280;9776;50.798;6.430;2022-12-20T08:18:35;99938.81;;;12.55;62.72
19286;BME280;9776;50.798;6.430;2022-12-20T08:21:02;99924.56;;;12.56;62.97
19286;BME280;9776;50.798;6.430;2022-12-20T08:23:31;99931.31;;;12.59;62.71
19286;BME280;9776;50.798;6.430;2022-12-20T08:25:59;99931.81;;;12.62;62.51
19286;BME280;9776;50.798;6.430;2022-12-20T08:28:26;99931.66;;;12.64;62.72
19286;BME280;9776;50.798;6.430;2022-12-20T08:30:59;99923.72;;;12.64;62.48
19286;BME280;9776;50.798;6.430;2022-12-20T08:33:26;99926.16;;;12.65;62.51
19286;BME280;9776;50.798;6.430;2022-12-20T08:35:56;99927.00;;;12.66;62.49
19286;BME280;9776;50.798;6.430;2022-12-20T08:38:25;99923.19;;;12.68;62.44
19286;BME280;9776;50.798;6.430;2022-12-20T08:40:53;99933.63;;;12.70;62.42
19286;BME280;9776;50.798;6.430;2022-12-20T08:43:20;99914.72;;;12.73;62.20
19286;BME280;9776;50.798;6.430;2022-12-20T08:45:51;99923.97;;;12.77;62.23
19286;BME280;9776;50.798;6.430;2022-12-20T08:48:18;99919.16;;;12.80;62.07
19286;BME280;9776;50.798;6.430;2022-12-20T08:50:45;99924.47;;;12.80;61.96
19286;BME280;9776;50.798;6.430;2022-12-20T08:53:12;99915.34;;;12.83;61.87
19286;BME280;9776;50.798;6.430;2022-12-20T08:55:38;99925.38;;;12.87;61.79
19286;BME280;9776;50.798;6.430;2022-12-20T08:58:07;99915.00;;;12.86;61.78
19286;BME280;9776;50.798;6.430;2022-12-20T09:00:35;99918.81;;;12.83;61.63
19286;BME280;9776;50.798;6.430;2022-12-20T09:03:01;99926.75;;;12.83;61.74
19286;BME280;9776;50.798;6.430;2022-12-20T09:05:28;99923.09;;;12.84;61.97
19286;BME280;9776;50.798;6.430;2022-12-20T09:07:55;99924.75;;;12.85;61.73
19286;BME280;9776;50.798;6.430;2022-12-20T09:10:22;99919.28;;;12.87;61.94
19286;BME280;9776;50.798;6.430;2022-12-20T09:12:48;99918.28;;;12.88;61.82
19286;BME280;9776;50.798;6.430;2022-12-20T09:15:17;99914.78;;;12.95;61.39
19286;BME280;9776;50.798;6.430;2022-12-20T09:17:43;99910.94;;;12.98;61.22
19286;BME280;9776;50.798;6.430;2022-12-20T09:20:11;99919.19;;;13.03;61.22
19286;BME280;9776;50.798;6.430;2022-12-20T09:22:40;99916.88;;;13.08;60.71
19286;BME280;9776;50.798;6.430;2022-12-20T09:25:07;99914.88;;;13.10;60.87
19286;BME280;9776;50.798;6.430;2022-12-20T09:27:34;99926.13;;;13.12;61.07
19286;BME280;9776;50.798;6.430;2022-12-20T09:30:01;99904.56;;;13.15;60.86
19286;BME280;9776;50.798;6.430;2022-12-20T09:32:29;99904.22;;;13.18;60.77
19286;BME280;9776;50.798;6.430;2022-12-20T09:34:56;99906.53;;;13.21;60.61
19286;BME280;9776;50.798;6.430;2022-12-20T09:37:22;99908.97;;;13.23;60.69
19286;BME280;9776;50.798;6.430;2022-12-20T09:39:49;99915.94;;;13.24;60.56
19286;BME280;9776;50.798;6.430;2022-12-20T09:42:17;99897.19;;;13.25;60.66
19286;BME280;9776;50.798;6.430;2022-12-20T09:44:45;99906.81;;;13.26;60.77
19286;BME280;9776;50.798;6.430;2022-12-20T09:47:14;99906.09;;;13.32;60.38
19286;BME280;9776;50.798;6.430;2022-12-20T09:49:47;99904.09;;;13.34;60.62
19286;BME280;9776;50.798;6.430;2022-12-20T09:52:24;99905.06;;;13.41;60.56
19286;BME280;9776;50.798;6.430;2022-12-20T09:55:01;99916.41;;;13.50;60.12
19286;BME280;9776;50.798;6.430;2022-12-20T09:57:42;99900.78;;;13.55;59.96
19286;BME280;9776;50.798;6.430;2022-12-20T10:00:14;99904.38;;;13.62;60.05
19286;BME280;9776;50.798;6.430;2022-12-20T10:02:42;99900.63;;;13.71;59.89
19286;BME280;9776;50.798;6.430;2022-12-20T10:05:14;99905.69;;;13.81;59.49
19286;BME280;9776;50.798;6.430;2022-12-20T10:07:48;99901.75;;;13.91;59.30
19286;BME280;9776;50.798;6.430;2022-12-20T10:13:22;99910.75;;;14.05;58.63
19286;BME280;9776;50.798;6.430;2022-12-20T10:15:59;99900.78;;;14.07;58.93
19286;BME280;9776;50.798;6.430;2022-12-20T10:18:49;99899.69;;;14.01;58.95
19286;BME280;9776;50.798;6.430;2022-12-20T10:21:27;99876.63;;;14.02;59.10
19286;BME280;9776;50.798;6.430;2022-12-20T10:24:01;99884.03;;;14.06;59.29
19286;BME280;9776;50.798;6.430;2022-12-20T10:26:28;99874.88;;;14.09;59.26
19286;BME280;9776;50.798;6.430;2022-12-20T10:28:55;99877.44;;;14.17;59.06
19286;BME280;9776;50.798;6.430;2022-12-20T10:31:22;99880.03;;;14.25;58.70
19286;BME280;9776;50.798;6.430;2022-12-20T10:33:49;99890.63;;;14.25;58.85
19286;BME280;9776;50.798;6.430;2022-12-20T10:36:18;99877.63;;;14.30;58.82
19286;BME280;9776;50.798;6.430;2022-12-20T10:38:48;99889.38;;;14.36;58.56
19286;BME280;9776;50.798;6.430;2022-12-20T10:41:16;99870.41;;;14.39;58.58
19286;BME280;9776;50.798;6.430;2022-12-20T10:43:46;99876.56;;;14.39;58.62
19286;BME280;9776;50.798;6.430;2022-12-20T10:46:14;99876.09;;;14.36;58.62
19286;BME280;9776;50.798;6.430;2022-12-20T10:48:43;99872.31;;;14.30;58.41
19286;BME280;9776;50.798;6.430;2022-12-20T10:51:15;99866.75;;;14.25;58.57
19286;BME280;9776;50.798;6.430;2022-12-20T10:53:55;99861.91;;;14.14;58.86
19286;BME280;9776;50.798;6.430;2022-12-20T10:56:23;99868.84;;;14.15;58.85
19286;BME280;9776;50.798;6.430;2022-12-20T10:58:55;99868.84;;;14.15;58.49
19286;BME280;9776;50.798;6.430;2022-12-20T11:01:26;99873.16;;;14.16;58.66
19286;BME280;9776;50.798;6.430;2022-12-20T11:03:57;99863.91;;;14.12;58.88
19286;BME280;9776;50.798;6.430;2022-12-20T11:06:28;99871.22;;;14.10;58.68
19286;BME280;9776;50.798;6.430;2022-12-20T11:09:26;99864.63;;;14.06;58.75
19286;BME280;9776;50.798;6.430;2022-12-20T11:11:57;99874.88;;;14.09;58.61
19286;BME280;9776;50.798;6.430;2022-12-20T11:14:24;99864.25;;;14.09;59.03
19286;BME280;9776;50.798;6.430;2022-12-20T11:16:52;99862.44;;;14.09;58.84
19286;BME280;9776;50.798;6.430;2022-12-20T11:19:33;99858.06;;;14.02;58.96
19286;BME280;9776;50.798;6.430;2022-12-20T11:22:08;99853.94;;;13.99;59.21
19286;BME280;9776;50.798;6.430;2022-12-20T11:24:50;99848.53;;;13.93;59.36
19286;BME280;9776;50.798;6.430;2022-12-20T11:27:28;99856.66;;;13.91;59.17
19286;BME280;9776;50.798;6.430;2022-12-20T11:30:06;99844.78;;;13.87;59.48
19286;BME280;9776;50.798;6.430;2022-12-20T11:33:05;99837.72;;;13.80;59.36
19286;BME280;9776;50.798;6.430;2022-12-20T11:35:46;99842.38;;;13.78;59.76
19286;BME280;9776;50.798;6.430;2022-12-20T11:38:24;99835.44;;;13.77;59.71
19286;BME280;9776;50.798;6.430;2022-12-20T11:41:01;99843.03;;;13.80;59.77
19286;BME280;9776;50.798;6.430;2022-12-20T11:43:47;99832.78;;;13.77;59.62
19286;BME280;9776;50.798;6.430;2022-12-20T11:46:26;99836.56;;;13.82;59.59
19286;BME280;9776;50.798;6.430;2022-12-20T11:49:15;99828.41;;;13.84;59.33
19286;BME280;9776;50.798;6.430;2022-12-20T11:51:52;99823.94;;;13.84;59.36
19286;BME280;9776;50.798;6.430;2022-12-20T11:54:28;99815.78;;;13.86;59.30
19286;BME280;9776;50.798;6.430;2022-12-20T11:57:00;99818.41;;;13.86;59.30
19286;BME280;9776;50.798;6.430;2022-12-20T11:59:33;99815.41;;;13.89;58.79
19286;BME280;9776;50.798;6.430;2022-12-20T12:02:07;99823.00;;;13.92;59.04
19286;BME280;9776;50.798;6.430;2022-12-20T12:04:39;99824.66;;;13.93;58.85
19286;BME280;9776;50.798;6.430;2022-12-20T12:07:10;99812.38;;;13.92;58.84
19286;BME280;9776;50.798;6.430;2022-12-20T12:09:51;99816.69;;;13.93;58.74
19286;BME280;9776;50.798;6.430;2022-12-20T12:12:24;99821.63;;;13.96;58.73
19286;BME280;9776;50.798;6.430;2022-12-20T12:14:58;99813.47;;;13.97;58.30
19286;BME280;9776;50.798;6.430;2022-12-20T12:17:32;99813.78;;;14.02;58.20
19286;BME280;9776;50.798;6.430;2022-12-20T12:20:14;99822.72;;;14.01;58.44
19286;BME280;9776;50.798;6.430;2022-12-20T12:22:48;99810.72;;;14.05;58.12
19286;BME280;9776;50.798;6.430;2022-12-20T12:25:17;99810.72;;;14.05;58.46
19286;BME280;9776;50.798;6.430;2022-12-20T12:27:45;99812.38;;;14.06;58.24
19286;BME280;9776;50.798;6.430;2022-12-20T12:30:13;99802.59;;;14.07;58.06
19286;BME280;9776;50.798;6.430;2022-12-20T12:32:42;99801.78;;;14.06;58.11
19286;BME280;9776;50.798;6.430;2022-12-20T12:38:07;99796.19;;;14.16;58.04
19286;BME280;9776;50.798;6.430;2022-12-20T12:43:50;99789.31;;;14.36;57.45
19286;BME280;9776;50.798;6.430;2022-12-20T12:46:22;99789.19;;;14.44;57.07
19286;BME280;9776;50.798;6.430;2022-12-20T12:48:56;99783.50;;;14.47;56.90
19286;BME280;9776;50.798;6.430;2022-12-20T12:51:28;99790.03;;;14.45;57.28
19286;BME280;9776;50.798;6.430;2022-12-20T12:54:15;99794.25;;;14.39;57.01
19286;BME280;9776;50.798;6.430;2022-12-20T12:56:44;99785.72;;;14.44;57.24
19286;BME280;9776;50.798;6.430;2022-12-20T13:05:31;99781.44;;;14.64;56.39
19286;BME280;9776;50.798;6.430;2022-12-20T13:07:59;99779.47;;;14.72;55.94
19286;BME280;9776;50.798;6.430;2022-12-20T13:10:55;99775.75;;;14.67;55.87
19286;BME280;9776;50.798;6.430;2022-12-20T13:13:22;99776.19;;;14.70;55.88
19286;BME280;9776;50.798;6.430;2022-12-20T13:16:08;99775.13;;;14.65;55.81
19286;BME280;9776;50.798;6.430;2022-12-20T13:18:36;99778.59;;;14.65;55.99
19286;BME280;9776;50.798;6.430;2022-12-20T13:21:36;99774.22;;;14.58;56.09
19286;BME280;9776;50.798;6.430;2022-12-20T13:24:38;99766.47;;;14.56;56.03
19286;BME280;9776;50.798;6.430;2022-12-20T13:27:34;99775.25;;;14.57;56.04
19286;BME280;9776;50.798;6.430;2022-12-20T13:30:27;99760.94;;;14.58;55.54
19286;BME280;9776;50.798;6.430;2022-12-20T13:33:17;99767.28;;;14.57;55.74
19286;BME280;9776;50.798;6.430;2022-12-20T13:35:58;99768.91;;;14.58;55.60
19286;BME280;9776;50.798;6.430;2022-12-20T13:38:54;99766.84;;;14.53;55.76